sensor_id;sensor_type;location;lat;lon;timestamp;P1;durP1;ratioP1;P2;durP2;ratioP2
22606;SDS011;11470;20.968;105.834;2022-11-21T00:01:47;47.67;;;26.20;;
22606;SDS011;11470;20.968;105.834;2022-11-21T00:06:52;44.83;;;24.33;;
22606;SDS011;11470;20.968;105.834;2022-11-21T00:11:58;38.65;;;21.33;;
22606;SDS011;11470;20.968;105.834;2022-11-21T00:17:03;42.00;;;24.88;;
22606;SDS011;11470;20.968;105.834;2022-11-21T00:22:09;43.17;;;22.97;;
22606;SDS011;11470;20.968;105.834;2022-11-21T00:27:14;41.92;;;26.52;;
22606;SDS011;11470;20.968;105.834;2022-11-21T00:32:19;39.90;;;24.47;;
22606;SDS011;11470;20.968;105.834;2022-11-21T00:37:25;44.72;;;24.30;;
22606;SDS011;11470;20.968;105.834;2022-11-21T00:42:30;46.33;;;23.38;;
22606;SDS011;11470;20.968;105.834;2022-11-21T00:47:36;45.97;;;26.40;;
22606;SDS011;11470;20.968;105.834;2022-11-21T00:52:42;41.15;;;24.08;;
22606;SDS011;11470;20.968;105.834;2022-11-21T00:57:48;42.70;;;22.25;;
22606;SDS011;11470;20.968;105.834;2022-11-21T01:02:53;50.03;;;25.48;;
22606;SDS011;11470;20.968;105.834;2022-11-21T01:08:02;46.38;;;24.13;;
22606;SDS011;11470;20.968;105.834;2022-11-21T01:13:13;45.92;;;26.02;;
22606;SDS011;11470;20.968;105.834;2022-11-21T01:23:24;44.85;;;25.20;;
22606;SDS011;11470;20.968;105.834;2022-11-21T01:28:30;67.68;;;43.60;;
22606;SDS011;11470;20.968;105.834;2022-11-21T01:33:36;65.93;;;40.72;;
22606;SDS011;11470;20.968;105.834;2022-11-21T01:38:43;42.35;;;19.50;;
22606;SDS011;11470;20.968;105.834;2022-11-21T01:43:49;43.03;;;21.90;;
22606;SDS011;11470;20.968;105.834;2022-11-21T01:59:23;71.95;;;37.20;;
22606;SDS011;11470;20.968;105.834;2022-11-21T02:04:31;69.95;;;36.92;;
22606;SDS011;11470;20.968;105.834;2022-11-21T02:09:38;68.47;;;41.00;;
22606;SDS011;11470;20.968;105.834;2022-11-21T02:14:45;65.82;;;37.45;;
22606;SDS011;11470;20.968;105.834;2022-11-21T02:30:12;88.60;;;49.45;;
22606;SDS011;11470;20.968;105.834;2022-11-21T02:40:24;68.55;;;39.28;;
22606;SDS011;11470;20.968;105.834;2022-11-21T02:45:37;82.07;;;44.17;;
22606;SDS011;11470;20.968;105.834;2022-11-21T02:50:45;49.60;;;29.30;;
22606;SDS011;11470;20.968;105.834;2022-11-21T02:55:50;71.15;;;42.13;;
22606;SDS011;11470;20.968;105.834;2022-11-21T03:00:56;70.63;;;40.05;;
22606;SDS011;11470;20.968;105.834;2022-11-21T03:11:07;52.45;;;30.95;;
22606;SDS011;11470;20.968;105.834;2022-11-21T03:16:12;58.40;;;34.03;;
22606;SDS011;11470;20.968;105.834;2022-11-21T03:21:20;50.90;;;29.60;;
22606;SDS011;11470;20.968;105.834;2022-11-21T03:26:26;52.20;;;31.08;;
22606;SDS011;11470;20.968;105.834;2022-11-21T03:31:32;48.40;;;30.38;;
22606;SDS011;11470;20.968;105.834;2022-11-21T03:36:37;49.92;;;29.40;;
22606;SDS011;11470;20.968;105.834;2022-11-21T03:41:43;55.20;;;31.38;;
22606;SDS011;11470;20.968;105.834;2022-11-21T03:51:53;48.42;;;29.70;;
22606;SDS011;11470;20.968;105.834;2022-11-21T03:56:59;41.35;;;26.50;;
22606;SDS011;11470;20.968;105.834;2022-11-21T04:02:05;50.55;;;29.45;;
22606;SDS011;11470;20.968;105.834;2022-11-21T04:07:10;41.47;;;26.38;;
22606;SDS011;11470;20.968;105.834;2022-11-21T04:12:17;44.40;;;27.85;;
22606;SDS011;11470;20.968;105.834;2022-11-21T04:22:27;43.97;;;26.90;;
22606;SDS011;11470;20.968;105.834;2022-11-21T04:27:33;40.83;;;27.10;;
22606;SDS011;11470;20.968;105.834;2022-11-21T04:32:38;48.63;;;29.33;;
22606;SDS011;11470;20.968;105.834;2022-11-21T04:42:49;46.78;;;30.83;;
22606;SDS011;11470;20.968;105.834;2022-11-21T04:47:54;54.25;;;33.50;;
22606;SDS011;11470;20.968;105.834;2022-11-21T04:53:00;49.20;;;31.23;;
22606;SDS011;11470;20.968;105.834;2022-11-21T04:58:06;48.28;;;31.27;;
22606;SDS011;11470;20.968;105.834;2022-11-21T05:03:11;41.47;;;26.10;;
22606;SDS011;11470;20.968;105.834;2022-11-21T05:08:17;48.33;;;30.63;;
22606;SDS011;11470;20.968;105.834;2022-11-21T05:13:22;41.35;;;26.40;;
22606;SDS011;11470;20.968;105.834;2022-11-21T05:18:30;37.90;;;26.33;;
22606;SDS011;11470;20.968;105.834;2022-11-21T05:23:39;39.30;;;25.13;;
22606;SDS011;11470;20.968;105.834;2022-11-21T05:28:44;36.55;;;26.38;;
22606;SDS011;11470;20.968;105.834;2022-11-21T05:33:52;38.78;;;27.40;;
22606;SDS011;11470;20.968;105.834;2022-11-21T05:44:02;34.47;;;24.67;;
22606;SDS011;11470;20.968;105.834;2022-11-21T05:54:13;26.05;;;19.25;;
22606;SDS011;11470;20.968;105.834;2022-11-21T05:59:18;31.27;;;19.08;;
22606;SDS011;11470;20.968;105.834;2022-11-21T06:09:29;29.55;;;21.40;;
22606;SDS011;11470;20.968;105.834;2022-11-21T06:14:35;32.05;;;22.30;;
22606;SDS011;11470;20.968;105.834;2022-11-21T06:19:40;28.00;;;18.25;;
22606;SDS011;11470;20.968;105.834;2022-11-21T06:24:46;36.80;;;23.70;;
22606;SDS011;11470;20.968;105.834;2022-11-21T06:34:56;33.60;;;23.15;;
22606;SDS011;11470;20.968;105.834;2022-11-21T06:40:01;34.38;;;23.92;;
22606;SDS011;11470;20.968;105.834;2022-11-21T06:45:08;41.05;;;25.00;;
22606;SDS011;11470;20.968;105.834;2022-11-21T06:50:14;42.60;;;25.05;;
22606;SDS011;11470;20.968;105.834;2022-11-21T06:55:19;42.08;;;25.60;;
22606;SDS011;11470;20.968;105.834;2022-11-21T07:00:26;38.95;;;26.27;;
22606;SDS011;11470;20.968;105.834;2022-11-21T07:05:32;45.72;;;30.10;;
22606;SDS011;11470;20.968;105.834;2022-11-21T07:10:37;36.17;;;26.48;;
22606;SDS011;11470;20.968;105.834;2022-11-21T07:16:07;38.20;;;26.00;;
22606;SDS011;11470;20.968;105.834;2022-11-21T07:21:13;34.88;;;23.67;;
22606;SDS011;11470;20.968;105.834;2022-11-21T07:31:23;36.95;;;25.33;;
22606;SDS011;11470;20.968;105.834;2022-11-21T07:36:28;34.75;;;22.42;;
22606;SDS011;11470;20.968;105.834;2022-11-21T07:41:36;30.05;;;23.17;;
22606;SDS011;11470;20.968;105.834;2022-11-21T07:46:41;41.53;;;27.42;;
22606;SDS011;11470;20.968;105.834;2022-11-21T07:51:48;34.45;;;24.85;;
22606;SDS011;11470;20.968;105.834;2022-11-21T07:56:53;39.95;;;26.02;;
22606;SDS011;11470;20.968;105.834;2022-11-21T08:07:04;34.50;;;25.35;;
22606;SDS011;11470;20.968;105.834;2022-11-21T08:12:13;32.95;;;23.65;;
22606;SDS011;11470;20.968;105.834;2022-11-21T08:17:26;34.53;;;24.58;;
22606;SDS011;11470;20.968;105.834;2022-11-21T08:22:41;31.58;;;24.45;;
22606;SDS011;11470;20.968;105.834;2022-11-21T08:27:47;34.83;;;25.30;;
22606;SDS011;11470;20.968;105.834;2022-11-21T08:32:53;30.08;;;23.48;;
22606;SDS011;11470;20.968;105.834;2022-11-21T08:37:58;34.22;;;26.70;;
22606;SDS011;11470;20.968;105.834;2022-11-21T08:43:05;35.13;;;26.10;;
22606;SDS011;11470;20.968;105.834;2022-11-21T08:48:11;40.67;;;27.30;;
22606;SDS011;11470;20.968;105.834;2022-11-21T08:58:22;37.08;;;27.55;;
22606;SDS011;11470;20.968;105.834;2022-11-21T09:03:27;40.78;;;28.38;;
22606;SDS011;11470;20.968;105.834;2022-11-21T09:08:36;36.08;;;26.10;;
22606;SDS011;11470;20.968;105.834;2022-11-21T09:13:41;41.47;;;30.00;;
22606;SDS011;11470;20.968;105.834;2022-11-21T09:19:12;48.70;;;32.55;;
22606;SDS011;11470;20.968;105.834;2022-11-21T09:24:21;55.55;;;34.85;;
22606;SDS011;11470;20.968;105.834;2022-11-21T09:29:27;49.13;;;31.52;;
22606;SDS011;11470;20.968;105.834;2022-11-21T09:34:32;42.65;;;31.27;;
22606;SDS011;11470;20.968;105.834;2022-11-21T09:39:38;46.92;;;33.70;;
22606;SDS011;11470;20.968;105.834;2022-11-21T09:49:51;55.08;;;36.97;;
22606;SDS011;11470;20.968;105.834;2022-11-21T09:55:02;50.85;;;33.47;;
22606;SDS011;11470;20.968;105.834;2022-11-21T10:00:13;50.38;;;33.85;;
22606;SDS011;11470;20.968;105.834;2022-11-21T10:05:22;49.55;;;34.53;;
22606;SDS011;11470;20.968;105.834;2022-11-21T10:10:48;56.88;;;39.17;;
22606;SDS011;11470;20.968;105.834;2022-11-21T10:15:55;57.53;;;39.35;;
22606;SDS011;11470;20.968;105.834;2022-11-21T10:21:08;53.42;;;38.25;;
22606;SDS011;11470;20.968;105.834;2022-11-21T10:31:40;60.80;;;41.35;;
22606;SDS011;11470;20.968;105.834;2022-11-21T10:36:48;64.95;;;43.60;;
22606;SDS011;11470;20.968;105.834;2022-11-21T10:47:29;83.00;;;51.25;;
22606;SDS011;11470;20.968;105.834;2022-11-21T10:53:20;79.57;;;51.03;;
22606;SDS011;11470;20.968;105.834;2022-11-21T10:58:01;86.15;;;54.90;;
22606;SDS011;11470;20.968;105.834;2022-11-21T11:03:21;98.90;;;62.65;;
22606;SDS011;11470;20.968;105.834;2022-11-21T11:08:29;83.07;;;56.63;;
22606;SDS011;11470;20.968;105.834;2022-11-21T11:19:00;77.72;;;54.80;;
22606;SDS011;11470;20.968;105.834;2022-11-21T11:29:19;88.25;;;57.50;;
22606;SDS011;11470;20.968;105.834;2022-11-21T11:34:25;90.63;;;58.47;;
22606;SDS011;11470;20.968;105.834;2022-11-21T11:39:36;80.40;;;55.33;;
22606;SDS011;11470;20.968;105.834;2022-11-21T11:50:18;117.85;;;77.85;;
22606;SDS011;11470;20.968;105.834;2022-11-21T11:55:32;95.72;;;59.60;;
22606;SDS011;11470;20.968;105.834;2022-11-21T12:00:58;106.25;;;63.80;;
22606;SDS011;11470;20.968;105.834;2022-11-21T12:06:11;105.75;;;66.00;;
22606;SDS011;11470;20.968;105.834;2022-11-21T12:11:32;100.30;;;65.32;;
22606;SDS011;11470;20.968;105.834;2022-11-21T12:16:57;106.80;;;66.32;;
22606;SDS011;11470;20.968;105.834;2022-11-21T12:22:02;99.68;;;64.20;;
22606;SDS011;11470;20.968;105.834;2022-11-21T12:37:47;130.73;;;78.80;;
22606;SDS011;11470;20.968;105.834;2022-11-21T12:43:02;126.85;;;78.75;;
22606;SDS011;11470;20.968;105.834;2022-11-21T12:59:04;126.88;;;79.38;;
22606;SDS011;11470;20.968;105.834;2022-11-21T13:04:19;136.27;;;80.68;;
22606;SDS011;11470;20.968;105.834;2022-11-21T13:09:28;144.43;;;85.28;;
22606;SDS011;11470;20.968;105.834;2022-11-21T13:19:55;147.32;;;86.90;;
22606;SDS011;11470;20.968;105.834;2022-11-21T13:25:03;129.15;;;80.82;;
22606;SDS011;11470;20.968;105.834;2022-11-21T13:45:38;113.75;;;72.35;;
22606;SDS011;11470;20.968;105.834;2022-11-21T13:56:15;101.78;;;64.65;;
22606;SDS011;11470;20.968;105.834;2022-11-21T14:06:53;99.55;;;65.03;;
22606;SDS011;11470;20.968;105.834;2022-11-21T14:12:01;94.78;;;58.10;;
22606;SDS011;11470;20.968;105.834;2022-11-21T14:27:25;104.28;;;60.58;;
22606;SDS011;11470;20.968;105.834;2022-11-21T14:32:31;110.80;;;66.05;;
22606;SDS011;11470;20.968;105.834;2022-11-21T14:37:40;98.75;;;62.03;;
22606;SDS011;11470;20.968;105.834;2022-11-21T14:42:46;87.68;;;51.85;;
22606;SDS011;11470;20.968;105.834;2022-11-21T14:47:52;99.47;;;62.47;;
22606;SDS011;11470;20.968;105.834;2022-11-21T14:52:58;94.78;;;58.22;;
22606;SDS011;11470;20.968;105.834;2022-11-21T14:58:04;90.68;;;57.80;;
22606;SDS011;11470;20.968;105.834;2022-11-21T15:03:16;97.28;;;58.70;;
22606;SDS011;11470;20.968;105.834;2022-11-21T15:08:23;90.13;;;57.55;;
22606;SDS011;11470;20.968;105.834;2022-11-21T15:13:49;86.77;;;53.80;;
22606;SDS011;11470;20.968;105.834;2022-11-21T15:19:22;98.40;;;61.22;;
22606;SDS011;11470;20.968;105.834;2022-11-21T15:29:35;87.03;;;55.97;;
22606;SDS011;11470;20.968;105.834;2022-11-21T15:34:47;86.18;;;56.08;;
22606;SDS011;11470;20.968;105.834;2022-11-21T15:39:53;93.68;;;56.55;;
22606;SDS011;11470;20.968;105.834;2022-11-21T15:45:00;92.97;;;58.28;;
22606;SDS011;11470;20.968;105.834;2022-11-21T15:50:06;89.80;;;56.05;;
22606;SDS011;11470;20.968;105.834;2022-11-21T15:55:24;91.05;;;57.78;;
22606;SDS011;11470;20.968;105.834;2022-11-21T16:00:39;89.50;;;55.40;;
22606;SDS011;11470;20.968;105.834;2022-11-21T16:05:48;80.75;;;49.95;;
22606;SDS011;11470;20.968;105.834;2022-11-21T16:10:58;90.00;;;52.08;;
22606;SDS011;11470;20.968;105.834;2022-11-21T16:16:08;116.05;;;71.18;;
22606;SDS011;11470;20.968;105.834;2022-11-21T16:21:15;101.97;;;67.15;;
22606;SDS011;11470;20.968;105.834;2022-11-21T16:26:27;105.82;;;67.53;;
22606;SDS011;11470;20.968;105.834;2022-11-21T16:31:44;101.00;;;62.78;;
22606;SDS011;11470;20.968;105.834;2022-11-21T16:41:55;147.07;;;105.97;;
22606;SDS011;11470;20.968;105.834;2022-11-21T16:47:06;152.65;;;104.10;;
22606;SDS011;11470;20.968;105.834;2022-11-21T16:52:13;185.70;;;130.15;;
22606;SDS011;11470;20.968;105.834;2022-11-21T16:57:18;173.55;;;121.30;;
22606;SDS011;11470;20.968;105.834;2022-11-21T17:02:24;163.38;;;112.00;;
22606;SDS011;11470;20.968;105.834;2022-11-21T17:07:32;185.75;;;132.27;;
22606;SDS011;11470;20.968;105.834;2022-11-21T17:12:39;162.32;;;107.90;;
22606;SDS011;11470;20.968;105.834;2022-11-21T17:17:47;144.43;;;101.18;;
22606;SDS011;11470;20.968;105.834;2022-11-21T17:22:53;140.43;;;93.63;;
22606;SDS011;11470;20.968;105.834;2022-11-21T17:28:01;112.57;;;74.97;;
22606;SDS011;11470;20.968;105.834;2022-11-21T17:33:06;120.40;;;76.77;;
22606;SDS011;11470;20.968;105.834;2022-11-21T17:38:12;113.70;;;71.75;;
22606;SDS011;11470;20.968;105.834;2022-11-21T17:43:18;118.90;;;71.32;;
22606;SDS011;11470;20.968;105.834;2022-11-21T17:48:23;113.95;;;72.63;;
22606;SDS011;11470;20.968;105.834;2022-11-21T17:53:30;110.15;;;71.18;;
22606;SDS011;11470;20.968;105.834;2022-11-21T17:58:36;109.38;;;70.30;;
22606;SDS011;11470;20.968;105.834;2022-11-21T18:03:41;114.05;;;71.15;;
22606;SDS011;11470;20.968;105.834;2022-11-21T18:08:48;115.57;;;74.60;;
22606;SDS011;11470;20.968;105.834;2022-11-21T18:13:54;130.85;;;83.65;;
22606;SDS011;11470;20.968;105.834;2022-11-21T18:18:59;112.95;;;75.50;;
22606;SDS011;11470;20.968;105.834;2022-11-21T18:24:05;121.63;;;76.90;;
22606;SDS011;11470;20.968;105.834;2022-11-21T18:34:36;102.38;;;66.38;;
22606;SDS011;11470;20.968;105.834;2022-11-21T18:39:41;103.75;;;64.13;;
22606;SDS011;11470;20.968;105.834;2022-11-21T18:49:53;90.47;;;56.73;;
22606;SDS011;11470;20.968;105.834;2022-11-21T18:54:58;89.85;;;55.10;;
22606;SDS011;11470;20.968;105.834;2022-11-21T19:00:03;93.77;;;54.27;;
22606;SDS011;11470;20.968;105.834;2022-11-21T19:05:09;94.32;;;56.78;;
22606;SDS011;11470;20.968;105.834;2022-11-21T19:10:21;84.82;;;55.13;;
22606;SDS011;11470;20.968;105.834;2022-11-21T19:15:45;95.43;;;57.85;;
22606;SDS011;11470;20.968;105.834;2022-11-21T19:20:50;94.82;;;59.63;;
22606;SDS011;11470;20.968;105.834;2022-11-21T19:26:05;93.40;;;60.10;;
22606;SDS011;11470;20.968;105.834;2022-11-21T19:31:11;85.88;;;55.65;;
22606;SDS011;11470;20.968;105.834;2022-11-21T19:36:18;89.50;;;54.42;;
22606;SDS011;11470;20.968;105.834;2022-11-21T19:41:24;82.40;;;51.55;;
22606;SDS011;11470;20.968;105.834;2022-11-21T19:46:31;79.80;;;48.63;;
22606;SDS011;11470;20.968;105.834;2022-11-21T19:51:38;85.13;;;50.63;;
22606;SDS011;11470;20.968;105.834;2022-11-21T19:56:43;86.45;;;53.88;;
22606;SDS011;11470;20.968;105.834;2022-11-21T20:01:49;91.57;;;59.08;;
22606;SDS011;11470;20.968;105.834;2022-11-21T20:12:03;98.63;;;59.03;;
22606;SDS011;11470;20.968;105.834;2022-11-21T20:17:09;86.93;;;52.38;;
22606;SDS011;11470;20.968;105.834;2022-11-21T20:22:14;87.63;;;54.93;;
22606;SDS011;11470;20.968;105.834;2022-11-21T20:27:20;83.05;;;50.55;;
22606;SDS011;11470;20.968;105.834;2022-11-21T20:32:25;87.15;;;51.92;;
22606;SDS011;11470;20.968;105.834;2022-11-21T20:37:31;89.30;;;54.60;;
22606;SDS011;11470;20.968;105.834;2022-11-21T20:42:36;92.18;;;56.28;;
22606;SDS011;11470;20.968;105.834;2022-11-21T20:47:42;104.07;;;61.63;;
22606;SDS011;11470;20.968;105.834;2022-11-21T20:52:48;86.77;;;50.13;;
22606;SDS011;11470;20.968;105.834;2022-11-21T20:58:13;78.80;;;43.88;;
22606;SDS011;11470;20.968;105.834;2022-11-21T21:03:18;90.45;;;50.05;;
22606;SDS011;11470;20.968;105.834;2022-11-21T21:08:25;95.72;;;60.45;;
22606;SDS011;11470;20.968;105.834;2022-11-21T21:13:30;102.63;;;58.72;;
22606;SDS011;11470;20.968;105.834;2022-11-21T21:18:36;106.87;;;65.90;;
22606;SDS011;11470;20.968;105.834;2022-11-21T21:23:42;99.63;;;61.03;;
22606;SDS011;11470;20.968;105.834;2022-11-21T21:28:48;110.10;;;66.18;;
22606;SDS011;11470;20.968;105.834;2022-11-21T21:33:53;106.35;;;59.50;;
22606;SDS011;11470;20.968;105.834;2022-11-21T21:38:59;103.15;;;59.92;;
22606;SDS011;11470;20.968;105.834;2022-11-21T21:44:04;113.72;;;67.60;;
22606;SDS011;11470;20.968;105.834;2022-11-21T21:49:10;112.00;;;66.22;;
22606;SDS011;11470;20.968;105.834;2022-11-21T21:54:17;109.43;;;61.95;;
22606;SDS011;11470;20.968;105.834;2022-11-21T21:59:22;109.43;;;60.83;;
22606;SDS011;11470;20.968;105.834;2022-11-21T22:04:28;113.20;;;64.30;;
22606;SDS011;11470;20.968;105.834;2022-11-21T22:09:35;109.75;;;70.00;;
22606;SDS011;11470;20.968;105.834;2022-11-21T22:14:41;115.50;;;70.35;;
22606;SDS011;11470;20.968;105.834;2022-11-21T22:19:46;116.27;;;65.37;;
22606;SDS011;11470;20.968;105.834;2022-11-21T22:24:52;112.13;;;61.95;;
22606;SDS011;11470;20.968;105.834;2022-11-21T22:35:02;103.05;;;59.88;;
22606;SDS011;11470;20.968;105.834;2022-11-21T22:40:08;111.15;;;63.75;;
22606;SDS011;11470;20.968;105.834;2022-11-21T22:45:14;98.78;;;57.40;;
22606;SDS011;11470;20.968;105.834;2022-11-21T22:55:25;88.78;;;45.00;;
22606;SDS011;11470;20.968;105.834;2022-11-21T23:00:30;104.05;;;61.70;;
22606;SDS011;11470;20.968;105.834;2022-11-21T23:05:36;108.45;;;62.13;;
22606;SDS011;11470;20.968;105.834;2022-11-21T23:10:41;110.20;;;68.82;;
22606;SDS011;11470;20.968;105.834;2022-11-21T23:15:48;109.32;;;64.32;;
22606;SDS011;11470;20.968;105.834;2022-11-21T23:20:54;100.30;;;53.80;;
22606;SDS011;11470;20.968;105.834;2022-11-21T23:25:59;103.55;;;58.05;;
22606;SDS011;11470;20.968;105.834;2022-11-21T23:31:04;103.75;;;61.95;;
22606;SDS011;11470;20.968;105.834;2022-11-21T23:36:11;98.53;;;58.63;;
22606;SDS011;11470;20.968;105.834;2022-11-21T23:41:16;111.22;;;64.25;;
22606;SDS011;11470;20.968;105.834;2022-11-21T23:46:22;100.30;;;55.28;;
22606;SDS011;11470;20.968;105.834;2022-11-21T23:51:28;109.20;;;62.72;;
22606;SDS011;11470;20.968;105.834;2022-11-21T23:56:34;125.22;;;69.53;;
